Atlanta, GA (31139)

12:01 PM EDT on May 27, 2015 (GMT -0400)
Grant Park | | Change Station
CLOSE
Current Station
Personal Weather Station
Location: Atlanta, GA
Elevation: 1050 ft
Nearby Weather Stations

Elev 1050 ft 33.74 °N, 84.37 °W | Updated 1 minute ago

Mostly Cloudy
Mostly Cloudy
72.7 °F
Feels Like 71 °F
N
0.2
Wind Variable Wind from NNE
Gusts 3.3 mph

Today
High -- | Low -- °F
--% Chance of Precip.
Yesterday
High -- | Low -- °F
Precip. -- in
6:29 AM 8:39 PM
Waxing Gibbous, 68% visible
Pressure 30.23 in
Visibility 10.0 miles
Clouds Scattered Clouds 1800 ft
Overcast 2500 ft
Heat Index 71 °F
Dew Point 69 °F
Humidity 88%
Rainfall 0.69 in
Snow Depth Not available.
UV 3 out of 12
Pollen .60 out of 12
Air Quality Not available.
Flu Activity Sporadic
METAR KFTY 271553Z VRB04KT 10SM SCT018 OVC025 23/18 A3025 RMK AO2 SLP237 T02330183

More Conditions Fewer Conditions

Pressure 30.23 in
Visibility 10.0 miles
Clouds Scattered Clouds 1800 ft
Overcast 2500 ft
Heat Index 71 °F
Dew Point 69 °F
Humidity 88%
Rainfall 0.69 in
Snow Depth Not available.
UV 3 out of 12
Pollen .60 out of 12
Air Quality Not available.
Flu Activity Sporadic
METAR KFTY 271553Z VRB04KT 10SM SCT018 OVC025 23/18 A3025 RMK AO2 SLP237 T02330183

More Conditions Fewer Conditions

10-Day Weather Forecast

Almanac

Astronomy

May. 27, 2015 Rise Set
Actual Time
Civil Twilight
Nautical Twilight
Astronomical Twilight
Moon
Length of Visible Light
Length of Day
Tomorrow will be .
, % of the Moon is Illuminated

Today's Extremes

State Highs State Lows

Community

WunderPhotos

Upload Photos

1,824,702 photos uploaded!

WunderBlogs® & News

Nearby

Air Quality

  Air Quality AQ Index Pollutant
Not available.

Snow Depth

Station Depth Elevation

Earthquake Activity

City Distance Mag. Time & Date
Minimum magnitude displayed is 2.5.

Coastal Water Temperatures

Place Temperature

Stations

Nearby Weather Stations

Station Location Temp. Windchill Dew Point Humidity Wind Precip. Elev Updated Type